Terminal Aerodrome Forecast
Issued by NWS Sterling, VA

Current Version | Previous Version | Text Only | Print | Product List | Glossary Off
Versions: 1 2 3 4 5 6 7 8 9 10 11 12 13 14 15 16 17 18 19 20 21 22 23 24 25 26

393
FTUS41 KLWX 202207 AAB
TAFIAD
TAF AMD
KIAD 202207Z 2022/2124 17006KT P6SM BKN009 OVC014
     FM210100 16005KT 4SM -DZ BR SCT003 OVC008
     FM211500 VRB03KT P6SM SCT003 OVC015
     FM211800 17004KT P6SM SCT008 OVC060=

USA.gov is the U.S. government's official web portal to all federal, state and local government web resources and services.